Tiempo atmosférico en la estación meteorológica de Barcelona, Museo Marítimo, Barcelona (37 m.)



Fecha
DESCASC
Temp. máxima en grados centígrados (hora)
DESCASC
Temp. mínima en grados centígrados (hora)
DESCASC
Temp. media en grados centígrados
DESCASC
Racha de viento máxima en m/sg (hora)
DESCASC
Velocidad máxima media en intervalos de 10 minutos(hora)
DESCASC
Precipitaciones diarias en mm
DESCASC
Precipitaciones de 00:00 a 06:00 en mm
DESCASC
Precipitaciones de 06:00 a 12:00 en mm
DESCASC
Precipitaciones de 12:00 a 18:00 en mm
DESCASC
Precipitaciones de 18:00 a 24:00 en mm
DESCASC
23-06-2019 -- (--) -- (--) -- 10.28 (17:40) 5.56 (17:50) -- -- -- -- --
22-06-2019 -- (--) -- (--) -- 12.5 (19:00) 7.5 (17:30) -- -- -- -- --
21-06-2019 -- (--) -- (--) -- 5.83 (13:10) 3.61 (13:10) -- -- -- -- --
20-06-2019 -- (--) -- (--) -- 6.39 (11:00) 2.78 (11:10) -- -- -- -- --
19-06-2019 -- (--) -- (--) -- -- (--) -- (--) -- -- -- -- --
18-06-2019 -- (--) -- (--) -- 10.28 (12:50) 5.28 (13:00) -- -- -- -- --
17-06-2019 -- (--) -- (--) -- 8.89 (16:40) 5.28 (20:20) -- -- -- -- --
16-06-2019 -- (--) -- (--) -- 10 (20:00) 4.72 (17:50) -- -- -- -- --
15-06-2019 -- (--) -- (--) -- 5.83 (16:00) 2.5 (12:00) -- -- -- -- --
14-06-2019 -- (--) -- (--) -- 14.17 (18:20) 6.94 (18:20) -- -- -- -- --
13-06-2019 -- (--) -- (--) -- 6.67 (14:50) 3.06 (13:50) -- -- -- -- --
12-06-2019 -- (--) -- (--) -- 8.61 (15:50) 4.17 (14:00) -- -- -- -- --
11-06-2019 -- (--) -- (--) -- 5.28 (13:50) 2.22 (02:40) -- -- -- -- --
10-06-2019 -- (--) -- (--) -- 9.72 (20:00) 4.72 (18:50) -- -- -- -- --
09-06-2019 -- (--) -- (--) -- 6.11 (15:30) 2.78 (15:20) 0 0 0 0 0
08-06-2019 -- (--) -- (--) -- 6.39 (15:40) 2.78 (14:40) 0 0 0 0 0
07-06-2019 -- (--) -- (--) -- 10.28 (14:10) 5.28 (15:10) 0 0 0 0 0
06-06-2019 -- (--) -- (--) -- 7.22 (12:50) 3.06 (16:40) 0 0 0 0 0
05-06-2019 -- (--) -- (--) -- 10 (16:10) 4.72 (15:40) 0 0 0 0 0
04-06-2019 -- (--) -- (--) -- 7.22 (12:10) 3.06 (11:30) 0 0 0 0 0
03-06-2019 -- (--) -- (--) -- 10 (15:30) 5.56 (15:00) 0 0 0 0 0
02-06-2019 -- (--) -- (--) -- 11.11 (15:50) 6.39 (15:50) 0 0 0 0 0
01-06-2019 -- (--) -- (--) -- 10.83 (16:20) 6.39 (15:40) 0 0 0 0 0
31-05-2019 -- (--) -- (--) -- 8.61 (18:30) 4.72 (17:30) 0 0 0 0 0
30-05-2019 -- (--) -- (--) -- 6.39 (18:20) 3.61 (18:20) -- -- 0 0 0
29-05-2019 -- (--) -- (--) -- 9.72 (15:50) 5.28 (16:00) -- -- -- -- --
28-05-2019 -- (--) -- (--) -- 5.83 (11:30) 2.22 (09:30) -- -- -- -- --

Gráficas

Temp. máximas Temp. mínimas Temp. medias Precipitaciones Rachas de viento máximas Velocidades máximas media en intervalos de 10 minutos

Datos horarios

Fecha y hora oficial Temperatura (ºC) Velocidad del viento (km/h) Dirección del viento Racha (km/h) Dirección de racha Precipitación (mm) Presión (hPa) Tendencia (hPa) Humedad (%)
2019-06-26 23:00:00 24.8 4 Este 12 Nordeste 0 -- -- 66
2019-06-26 22:00:00 24.7 4 Nordeste 15 Nordeste 0 -- -- 68
2019-06-26 21:00:00 25.4 6 Este 16 Este 0 -- -- 67
2019-06-26 20:00:00 25.8 6 Este 16 Sudeste 0 -- -- 68
2019-06-26 19:00:00 27.4 6 Este 26 Este 0 -- -- 61
2019-06-26 18:00:00 -- 7 Este 27 Nordeste 0 -- -- --
2019-06-26 17:00:00 28.5 6 Este 20 Sudeste 0 -- -- 59
2019-06-26 16:00:00 28.6 6 Este 21 Este 0 -- -- 56
2019-06-26 15:00:00 27.1 8 Este 23 Este 0 -- -- 66
2019-06-26 14:00:00 27.2 6 Este 25 Sudeste 0 -- -- 71
2019-06-26 13:00:00 28.2 8 Este 24 Este 0 -- -- 58
2019-06-26 12:00:00 27.8 8 Este 24 Sudeste 0 -- -- 58
2019-06-26 11:00:00 29.8 8 Este 23 Sudeste 0 -- -- 46
2019-06-26 10:00:00 28.8 10 Este 25 Este 0 -- -- 50
2019-06-26 09:00:00 27.9 8 Este 23 Sudeste 0 -- -- 46
2019-06-26 08:00:00 20.9 7 Este 22 Este 0 -- -- 80
2019-06-26 07:00:00 25.5 6 Nordeste 22 Nordeste 0 -- -- 51
2019-06-26 06:00:00 25.4 7 Nordeste 25 Este 0 -- -- 51
2019-06-26 05:00:00 25.1 7 Este 21 Este 0 -- -- 53
2019-06-26 04:00:00 24.7 8 Este 25 Sudeste 0 -- -- 59
2019-06-26 03:00:00 24.4 7 Este 22 Sudeste 0 -- -- 63
2019-06-26 02:00:00 24.1 8 Este 26 Sudeste 0 -- -- 67
2019-06-26 01:00:00 23.7 8 Nordeste 22 Nordeste 0 -- -- 72
2019-06-26 00:00:00 23.7 8 Este 28 Nordeste 0 -- -- 73
2019-06-25 23:00:00 23.5 8 Este 31 Este 0 -- -- 76
2019-06-25 22:00:00 23.2 6 Este 26 Este 0 -- -- 80
2019-06-25 21:00:00 23.5 7 Este 23 Este 0 -- -- 81
2019-06-25 20:00:00 24.3 7 Este 30 Este 0 -- -- 78
2019-06-25 19:00:00 24.8 11 Este 28 Este 0 -- -- 76
2019-06-25 18:00:00 25.7 10 Este 28 Nordeste 0 -- -- 71
2019-06-25 17:00:00 26.4 10 Este 26 Este 0 -- -- 68
2019-06-25 16:00:00 26.8 10 Este 23 Sudeste 0 -- -- 65
2019-06-25 15:00:00 27 9 Este 23 Sur 0 -- -- 64
2019-06-25 14:00:00 27.1 12 Este 26 Sudeste 0 -- -- 60
2019-06-25 13:00:00 27.8 10 Este 26 Sudeste 0 -- -- 57
2019-06-25 12:00:00 27.5 9 Este 23 Este 0 -- -- 59
2019-06-25 11:00:00 26.8 9 Este 25 Este 0 -- -- 62
2019-06-25 10:00:00 25.3 10 Este 28 Sudeste 0 -- -- 66
2019-06-25 09:00:00 22.4 8 Este 26 Sudeste 0 -- -- 84
2019-06-25 08:00:00 20.5 11 Este 26 Sudeste 0 -- -- 91
2019-06-25 07:00:00 22 9 Este 22 Este 0 -- -- 79
2019-06-25 06:00:00 21.8 5 Este 18 Nordeste 0 -- -- 81
2019-06-25 05:00:00 22.5 6 Este 20 Sudeste 0 -- -- 77
2019-06-25 04:00:00 22.9 7 Este 21 Nordeste 0 -- -- 75
2019-06-25 03:00:00 22.9 8 Este 22 Sudeste 0 -- -- 74
2019-06-25 02:00:00 22.7 9 Este 23 Este 0 -- -- 74
2019-06-25 01:00:00 22.6 10 Este 27 Este 0 -- -- 76
2019-06-25 00:00:00 22.1 7 Este 23 Este 0 -- -- 83
2019-06-24 23:00:00 21.9 8 Este 21 Este 0 -- -- 87
2019-06-24 22:00:00 21.9 8 Este 22 Este 0 -- -- 87
2019-06-24 21:00:00 22.2 9 Este 25 Sudeste 0 -- -- 84
2019-06-24 20:00:00 23 10 Este 35 Este 0 -- -- 79
2019-06-24 19:00:00 24.5 10 Este 28 Nordeste 0 -- -- 70
2019-06-24 18:00:00 25.5 9 Este 22 Sudeste 0 -- -- 64
2019-06-24 17:00:00 26.4 10 Este 25 Sudeste 0 -- -- 55
2019-06-24 16:00:00 26.6 8 Sudeste 33 Sudeste 0 -- -- 58
2019-06-24 15:00:00 26.4 12 Este 28 Este 0 -- -- 56
2019-06-24 14:00:00 26.2 9 Este 27 Sudeste 0 -- -- 55
2019-06-24 13:00:00 25.6 10 Este 27 Nordeste 0 -- -- 61
2019-06-24 12:00:00 25 9 Este 25 Este 0 -- -- 69
2019-06-24 11:00:00 24 9 Este 21 Este 0 -- -- 75
2019-06-24 10:00:00 23.9 6 Este 19 Este 0 -- -- 73
2019-06-24 09:00:00 21.7 4 Este 12 Este 0 -- -- 74
2019-06-24 08:00:00 18.5 3 Este 10 Sudeste 0 -- -- 89
2019-06-24 07:00:00 22.2 4 Nordeste 10 Norte 0 -- -- 61
2019-06-24 06:00:00 21.6 0 Calma 4 Oeste 0 -- -- 69
2019-06-24 05:00:00 22.1 3 Oeste 11 Nordeste 0 -- -- 67
2019-06-24 04:00:00 22.3 4 Nordeste 9 Nordeste 0 -- -- 69
2019-06-24 03:00:00 21.1 3 Este 5 Este 0 -- -- 90
2019-06-24 02:00:00 20.8 0 Calma 5 Sudeste 0 -- -- 93
2019-06-24 01:00:00 21 2 Este 7 Sudeste 0 -- -- 93
2019-06-24 00:00:00 21.2 0 Calma 6 Sudeste 0 -- -- 92
2019-06-23 23:00:00 21.5 3 Sudeste 8 Sudeste 0 -- -- 90
2019-06-23 22:00:00 22.8 4 Este 10 Sudoeste 0 -- -- 81
2019-06-23 21:00:00 24.3 0 Calma 19 Sudoeste 0 -- -- 57
2019-06-23 20:00:00 25.6 8 Sudoeste 25 Oeste 0 -- -- 57
2019-06-23 19:00:00 27.8 11 Oeste 33 Oeste 0 -- -- 51
2019-06-23 18:00:00 27.7 18 Oeste 37 Oeste 0 -- -- 50
2019-06-23 17:00:00 27.3 17 Oeste 31 Oeste 0 -- -- 56
2019-06-23 16:00:00 27.1 14 Oeste 29 Oeste 0 -- -- 59
2019-06-23 15:00:00 27.4 10 Oeste 28 Oeste 0 -- -- 59
2019-06-23 14:00:00 26.6 10 Sudoeste 19 Sudoeste 0 -- -- 64
2019-06-23 13:00:00 27.4 4 Nordeste 17 Sudoeste 0 -- -- 64
2019-06-23 12:00:00 27.2 4 Oeste 17 Sudoeste 0 -- -- 64
2019-06-23 11:00:00 25.4 7 Sudoeste 17 Sudoeste 0 -- -- 69
2019-06-23 10:00:00 24.3 7 Oeste 17 Oeste 0 -- -- 71
2019-06-23 09:00:00 22.1 7 Oeste 14 Noroeste 0 -- -- 80
2019-06-23 08:00:00 21.2 8 Oeste 15 Oeste 0 -- -- 85
2019-06-23 07:00:00 20.6 5 Oeste 10 Oeste 0 -- -- 86
2019-06-23 06:00:00 20.2 2 Oeste 11 Oeste 0 -- -- 84
2019-06-23 05:00:00 20.5 3 Oeste 8 Oeste 0 -- -- 88
2019-06-23 04:00:00 20.8 0 Calma 12 Noroeste 0 -- -- 87
2019-06-23 03:00:00 21 5 Oeste 14 Oeste 0 -- -- 87
2019-06-23 02:00:00 21.2 7 Oeste 15 Oeste 0 -- -- 85
2019-06-23 01:00:00 21.3 10 Oeste 19 Oeste 0 -- -- 83
2019-06-23 00:00:00 21.7 8 Oeste 18 Oeste 0 -- -- 79
2019-06-22 23:00:00 22.1 4 Oeste 25 Oeste 0 -- -- 74
2019-06-22 22:00:00 22.3 10 Oeste 28 Sudoeste 0 -- -- 72
2019-06-22 21:00:00 23 12 Oeste 33 Sudoeste 0 -- -- 68
2019-06-22 20:00:00 24.5 10 Oeste 43 Oeste 0 -- -- 57
2019-06-22 19:00:00 25.5 24 Oeste 45 Oeste 0 -- -- 55
2019-06-22 18:00:00 25.7 25 Oeste 45 Oeste 0 -- -- 58
2019-06-22 17:00:00 26.1 24 Oeste 41 Oeste 0 -- -- 52
2019-06-22 16:00:00 26.7 23 Oeste 40 Oeste 0 -- -- 51
2019-06-22 15:00:00 26.6 22 Oeste 37 Oeste 0 -- -- 48
2019-06-22 14:00:00 26.9 17 Oeste 30 Oeste 0 -- -- 47
2019-06-22 13:00:00 27.3 11 Oeste 25 Sudoeste 0 -- -- 52
2019-06-22 12:00:00 26.4 12 Sudoeste 21 Sudoeste 0 -- -- 53
2019-06-22 11:00:00 26 9 Sudoeste 23 Sudoeste 0 -- -- 52
2019-06-22 10:00:00 24.8 8 Oeste 15 Oeste 0 -- -- 53
2019-06-22 09:00:00 23.1 5 Oeste 14 Sudoeste 0 -- -- 58
2019-06-22 08:00:00 21.5 4 Sudoeste 10 Sudoeste 0 -- -- 68
2019-06-22 07:00:00 20.6 4 Oeste 9 Sudoeste 0 -- -- 73
2019-06-22 06:00:00 20.6 6 Oeste 9 Oeste 0 -- -- 74
2019-06-22 05:00:00 21.3 4 Oeste 9 Sudoeste 0 -- -- 72
2019-06-22 04:00:00 21.6 5 Oeste 8 Sudoeste 0 -- -- 69
2019-06-22 03:00:00 21.1 0 Calma 5 Oeste 0 -- -- 74
2019-06-22 02:00:00 21.6 3 Oeste 7 Oeste 0 -- -- 71
2019-06-22 01:00:00 21.5 5 Oeste 9 Oeste 0 -- -- 71
2019-06-22 00:00:00 21.7 3 Oeste 6 Oeste 0 -- -- 71
2019-06-21 23:00:00 21.5 2 Sudoeste 5 Sudoeste 0 -- -- 72
2019-06-21 22:00:00 21.5 3 Este 8 Sudeste 0 -- -- 72
2019-06-21 21:00:00 22.1 3 Este 8 Sudoeste 0 -- -- 70
2019-06-21 20:00:00 22.6 3 Este 10 Sudoeste 0 -- -- 70
2019-06-21 19:00:00 23.3 4 Este 13 Sudeste 0 -- -- 69
2019-06-21 18:00:00 24.3 7 Sudeste 18 Sudeste 0 -- -- 65
2019-06-21 17:00:00 24.9 7 Sudeste 19 Sudeste 0 -- -- 64
2019-06-21 16:00:00 25.6 5 Este 16 Sudoeste 0 -- -- 65
2019-06-21 15:00:00 25.9 5 Noroeste 18 Sudoeste 0 -- -- 63
2019-06-21 14:00:00 25.9 7 Sudoeste 21 Sur 0 -- -- 58
2019-06-21 13:00:00 26 8 Sudoeste 18 Sudoeste 0 -- -- 59
2019-06-21 12:00:00 27.1 5 Sudoeste 13 Oeste 0 -- -- 57
2019-06-21 11:00:00 26.5 8 Sudeste 17 Sudeste 0 -- -- 53
2019-06-21 10:00:00 24.5 6 Nordeste 18 Nordeste 0 -- -- 60
2019-06-21 09:00:00 20.6 8 Nordeste 17 Nordeste 0 -- -- 84
2019-06-21 08:00:00 18.8 6 Nordeste 13 Nordeste 0 -- -- 95
2019-06-21 07:00:00 20.3 4 Este 14 Este 0 -- -- 82
2019-06-21 06:00:00 20.2 4 Este 10 Este 0 -- -- 84
2019-06-21 05:00:00 20.1 4 Este 11 Nordeste 0 -- -- 83
2019-06-21 04:00:00 19.8 4 Este 10 Este 0 -- -- 85
2019-06-21 03:00:00 19.8 3 Este 8 Este 0 -- -- 83
2019-06-21 02:00:00 20 3 Este 10 Sudeste 0 -- -- 81
2019-06-21 01:00:00 20.1 3 Este 7 Sudeste 0 -- -- 83
2019-06-21 00:00:00 20.4 4 Sudeste 11 Sudeste 0 -- -- 84
2019-06-20 23:00:00 20.7 5 Este 13 Este 0 -- -- 79
2019-06-20 22:00:00 20.8 5 Este 14 Sudeste 0 -- -- 80
2019-06-20 21:00:00 21.3 6 Este 19 Nordeste 0 -- -- 77
2019-06-20 20:00:00 21.7 6 Este 15 Este 0 -- -- 78
2019-06-20 19:00:00 22.9 5 Este 18 Sudeste 0 -- -- 74
2019-06-20 18:00:00 23.4 5 Este 20 Sudeste 0 -- -- 72
2019-06-20 17:00:00 24.3 8 Este 17 Sudeste 0 -- -- 68
2019-06-20 16:00:00 24.7 7 Sudeste 18 Sudeste 0 -- -- 67
2019-06-20 15:00:00 24.2 9 Sudeste 17 Este 0 -- -- 69
2019-06-20 14:00:00 23.9 7 Este 17 Sudeste 0 -- -- 72
2019-06-20 13:00:00 23.5 8 Sudeste 18 Sudeste 0 -- -- 74
2019-06-20 12:00:00 23.2 8 Este 22 Este 0 -- -- 76
2019-06-20 11:00:00 22.8 9 Este 23 Sudeste 0 -- -- 86
2019-06-20 10:00:00 21.6 7 Este 19 Sudeste 0 -- -- 94
2019-06-20 09:00:00 20.1 5 Este 13 Sudeste 0 -- -- 98
2019-06-20 08:00:00 19.7 3 Este 8 Oeste 0 -- -- 97
2019-06-20 07:00:00 20.1 0 Calma 6 Sur 0 -- -- 86
2019-06-20 06:00:00 20 2 Este 5 Sudeste 0 -- -- 87
2019-06-20 05:00:00 19.7 0 Calma 6 Sudeste 0 -- -- 90
2019-06-20 04:00:00 20 3 Sudeste 5 Sudeste 0 -- -- 90
2019-06-20 03:00:00 20.1 0 Calma 5 Sudeste 0 -- -- 89
2019-06-20 02:00:00 20.3 2 Este 5 Sudeste 0 -- -- 88
2019-06-20 01:00:00 20.4 3 Este 8 Este 0 -- -- 86
2019-06-20 00:00:00 20.5 3 Este 8 Este 0 -- -- 84
2019-06-19 23:00:00 20.6 3 Este 9 Este 0 -- -- 84
2019-06-19 22:00:00 20.9 2 Sudoeste 11 Sudoeste 0 -- -- 82
2019-06-19 21:00:00 21.6 6 Sudoeste 17 Sudoeste 0 -- -- 79
2019-06-19 20:00:00 22.3 8 Sudoeste 20 Sudoeste 0 -- -- 77
2019-06-19 19:00:00 24.2 8 Sudoeste 23 Sudoeste 0 -- -- 71
2019-06-19 18:00:00 24.2 10 Sudoeste 23 Sur 0 -- -- 72
2019-06-19 17:00:00 24.4 11 Sudoeste 24 Sudoeste 0 -- -- 71
2019-06-19 16:00:00 24.7 9 Sudoeste 26 Sur 0 -- -- 70
2019-06-19 15:00:00 23.7 13 Sudoeste 31 Sudoeste 0 -- -- 74
2019-06-19 14:00:00 24.2 13 Sudoeste 32 Sudoeste 0 -- -- 71
2019-06-19 13:00:00 25.6 9 Sudoeste 23 Sudoeste 0 -- -- 62
2019-06-19 12:00:00 -- -- -- -- -- -- -- -- --
2019-06-19 11:00:00 24.8 9 Sudoeste 19 Sudoeste 0 -- -- 60
2019-06-19 10:00:00 23.1 7 Oeste 19 Sudoeste 0 -- -- 67
2019-06-19 09:00:00 20.9 10 Oeste 18 Sudoeste 0 -- -- 78
2019-06-19 08:00:00 17.7 5 Oeste 13 Oeste 0 -- -- 84
2019-06-19 07:00:00 19.7 4 Oeste 10 Oeste 0 -- -- 61
2019-06-19 06:00:00 19.7 5 Oeste 8 Oeste 0 -- -- 60
2019-06-19 05:00:00 19.7 3 Oeste 10 Oeste 0 -- -- 61
2019-06-19 04:00:00 20 5 Oeste 9 Noroeste 0 -- -- 61
2019-06-19 03:00:00 20.3 2 Oeste 7 Oeste 0 -- -- 60
2019-06-19 02:00:00 20.6 5 Oeste 9 Oeste 0 -- -- 60
2019-06-19 01:00:00 21 4 Oeste 7 Oeste 0 -- -- 60
2019-06-19 00:00:00 21 3 Oeste 7 Sudoeste 0 -- -- 63
2019-06-18 23:00:00 21.6 4 Oeste 14 Sudoeste 0 -- -- 63
2019-06-18 22:00:00 22.5 5 Sudoeste 17 Oeste 0 -- -- 54
2019-06-18 21:00:00 23.5 8 Sudoeste 23 Oeste 0 -- -- 55
2019-06-18 20:00:00 24.4 9 Sudoeste 23 Oeste 0 -- -- 55
2019-06-18 19:00:00 25.5 12 Oeste 29 Oeste 0 -- -- 47
2019-06-18 18:00:00 25.4 13 Oeste 33 Oeste 0 -- -- 53
2019-06-18 17:00:00 26 14 Oeste 33 Oeste 0 -- -- 50
2019-06-18 16:00:00 26 17 Oeste 33 Oeste 0 -- -- 47
2019-06-18 15:00:00 26.5 16 Oeste 27 Sudoeste 0 -- -- 44
2019-06-18 14:00:00 26.1 15 Oeste 36 Oeste 0 -- -- 45
2019-06-18 13:00:00 26.4 19 Oeste 37 Oeste 0 -- -- 43
2019-06-18 12:00:00 26.7 15 Oeste 35 Oeste 0 -- -- 40
2019-06-18 11:00:00 25.8 13 Oeste 21 Oeste 0 -- -- 42
2019-06-18 10:00:00 24.7 8 Oeste 13 Oeste 0 -- -- 45
2019-06-18 09:00:00 21.5 6 Oeste 11 Oeste 0 -- -- 66
2019-06-18 08:00:00 17 3 Oeste 7 Oeste 0 -- -- 90
2019-06-18 07:00:00 18.8 0 Calma 4 Sudoeste 0 -- -- 68
2019-06-18 06:00:00 19.3 0 Calma 7 Oeste 0 -- -- 64
2019-06-18 05:00:00 19.6 4 Oeste 11 Oeste 0 -- -- 64
2019-06-18 04:00:00 19.4 5 Oeste 10 Oeste 0 -- -- 64
2019-06-18 03:00:00 19.5 6 Oeste 12 Oeste 0 -- -- 76
2019-06-18 02:00:00 19.8 7 Oeste 13 Oeste 0 -- -- 86
2019-06-18 01:00:00 20.2 3 Oeste 12 Oeste 0 -- -- 80
2019-06-18 00:00:00 20.7 7 Oeste 13 Oeste 0 -- -- 77
2019-06-17 23:00:00 21.1 4 Oeste 11 Sudoeste 0 -- -- 73
2019-06-17 22:00:00 21.4 4 Sudoeste 19 Sudoeste 0 -- -- 69
2019-06-17 21:00:00 22.4 12 Oeste 32 Oeste 0 -- -- 64
2019-06-17 20:00:00 23.2 12 Sudoeste 25 Sudoeste 0 -- -- 61
2019-06-17 19:00:00 25 11 Oeste 29 Oeste 0 -- -- 58
2019-06-17 18:00:00 25.2 16 Oeste 31 Oeste 0 -- -- 59
2019-06-17 17:00:00 25.4 17 Oeste 32 Oeste 0 -- -- 54
2019-06-17 16:00:00 25.1 15 Oeste 31 Oeste 0 -- -- 58
2019-06-17 15:00:00 25 13 Sudoeste 26 Sudoeste 0 -- -- 63
2019-06-17 14:00:00 26.2 4 Sudoeste 16 Sudoeste 0 -- -- 62
2019-06-17 13:00:00 26.1 4 Nordeste 15 Sudeste 0 -- -- 63
2019-06-17 12:00:00 26.9 4 Sudoeste 14 Este 0 -- -- 53
2019-06-17 11:00:00 24.6 5 Este 10 Sudeste 0 -- -- 58
2019-06-17 10:00:00 22.8 3 Sudeste 10 Sudeste 0 -- -- 60
2019-06-17 09:00:00 19.5 5 Sudeste 10 Sudeste 0 -- -- 75
2019-06-17 08:00:00 17 6 Oeste 14 Oeste 0 -- -- 84
2019-06-17 07:00:00 18.3 8 Oeste 15 Oeste 0 -- -- 70
2019-06-17 06:00:00 17.8 0 Calma 5 Sudoeste 0 -- -- 66
2019-06-17 05:00:00 18.1 0 Calma 5 Oeste 0 -- -- 65
2019-06-17 04:00:00 18.5 4 Oeste 10 Sudoeste 0 -- -- 64
2019-06-17 03:00:00 19 3 Sudoeste 11 Oeste 0.2 -- -- 61
2019-06-17 02:00:00 19.7 5 Oeste 10 Noroeste 0 -- -- 56
2019-06-17 01:00:00 19.6 2 Sudoeste 6 Sudoeste 0 -- -- 60
2019-06-17 00:00:00 20 0 Calma 14 Sudoeste 0 -- -- 59
2019-06-16 23:00:00 20.9 8 Oeste 22 Sudoeste 0 -- -- 54
2019-06-16 22:00:00 20.9 11 Oeste 21 Oeste 0 -- -- 59
2019-06-16 21:00:00 21.1 10 Oeste 30 Oeste 0 -- -- 63
2019-06-16 20:00:00 21.8 15 Oeste 36 Oeste 0 -- -- 63
2019-06-16 19:00:00 23.2 12 Oeste 26 Oeste 0 -- -- 58
2019-06-16 18:00:00 23.7 13 Oeste 34 Oeste 0 -- -- 57
2019-06-16 17:00:00 24.9 14 Sudoeste 28 Oeste 0 -- -- 53
2019-06-16 16:00:00 25.2 12 Oeste 32 Oeste 0 -- -- 50
2019-06-16 15:00:00 24.8 14 Oeste 28 Sudoeste 0 -- -- 51
2019-06-16 14:00:00 23.4 11 Sudoeste 23 Sudoeste 0 -- -- 67
2019-06-16 13:00:00 23.5 8 Sudoeste 20 Oeste 0 -- -- 61
2019-06-16 12:00:00 23.1 5 Este 17 Este 0 -- -- 69
2019-06-16 11:00:00 22.7 7 Sudeste 15 Sudeste 0 -- -- 66
2019-06-16 10:00:00 22.4 7 Sudeste 13 Sudeste 0 -- -- 66
2019-06-16 09:00:00 19.6 6 Sudeste 10 Sudeste 0 -- -- 75
2019-06-16 08:00:00 18.8 3 Este 10 Nordeste 0 -- -- 76
2019-06-16 07:00:00 17.5 0 Calma 5 Oeste 0 -- -- 80
2019-06-16 06:00:00 17.9 2 Oeste 12 Oeste 0 -- -- 78
2019-06-16 05:00:00 18.1 4 Oeste 10 Oeste 0 -- -- 78
2019-06-16 04:00:00 18.6 4 Oeste 11 Oeste 0 -- -- 77
2019-06-16 03:00:00 18.7 7 Oeste 12 Oeste 0 -- -- 78
2019-06-16 02:00:00 18.4 3 Oeste 9 Oeste 0 -- -- 81
2019-06-16 01:00:00 18.7 4 Oeste 8 Sudoeste 0 -- -- 79
2019-06-16 00:00:00 18.7 3 Sudoeste 6 Sudoeste 0 -- -- 80
2019-06-15 23:00:00 18.5 0 Calma 7 Sudeste 0 -- -- 81
2019-06-15 22:00:00 18.8 4 Este 8 Sudeste 0 -- -- 80
2019-06-15 21:00:00 19.6 4 Este 15 Este 0.2 -- -- 78
2019-06-15 20:00:00 20.3 5 Este 17 Sudeste 0 -- -- 77
2019-06-15 19:00:00 20.9 6 Este 18 Sudeste 0 -- -- 75
2019-06-15 18:00:00 22.1 8 Este 20 Sudeste 0 -- -- 72
2019-06-15 17:00:00 22 5 Este 18 Este 0 -- -- 78
2019-06-15 16:00:00 21.5 8 Este 21 Sudeste 0 -- -- 79
2019-06-15 15:00:00 22 7 Este 17 Este 0 -- -- 76
2019-06-15 14:00:00 23.2 6 Este 17 Este 0 -- -- 72
2019-06-15 13:00:00 22.9 7 Este 18 Sudeste 0 -- -- 72
2019-06-15 12:00:00 23.5 9 Sudeste 18 Sudeste 0 -- -- 69
2019-06-15 11:00:00 23.5 4 Este 12 Sudeste 0 -- -- 71
2019-06-15 10:00:00 22.1 5 Sudeste 11 Sudeste 0 -- -- 74
2019-06-15 09:00:00 20.1 3 Este 9 Sudeste 0 -- -- 75
2019-06-15 08:00:00 19 2 Este 6 Nordeste 0 -- -- 82
2019-06-15 07:00:00 18.6 3 Nordeste 13 Nordeste 0 -- -- 80
2019-06-15 06:00:00 18.3 4 Sudeste 8 Sudeste 0.2 -- -- 82
2019-06-15 05:00:00 18.4 2 Oeste 8 Oeste 0 -- -- 76
2019-06-15 04:00:00 18.6 3 Oeste 9 Oeste 0 -- -- 75
2019-06-15 03:00:00 18.8 2 Sudoeste 7 Sudeste 0 -- -- 80
2019-06-15 02:00:00 19 0 Calma 6 Oeste 0 -- -- 73
2019-06-15 01:00:00 19.7 0 Calma 13 Oeste 0 -- -- 70
2019-06-15 00:00:00 20.4 5 Oeste 12 Sudoeste 0 -- -- 64
2019-06-14 23:00:00 20.4 3 Oeste 8 Oeste 0 -- -- 65
2019-06-14 22:00:00 21.2 8 Oeste 20 Sudoeste 0 -- -- 64
2019-06-14 21:00:00 22 13 Oeste 37 Oeste 0 -- -- 64
2019-06-14 20:00:00 22 19 Oeste 40 Oeste 0 -- -- 66
2019-06-14 19:00:00 22.9 23 Oeste 51 Sudoeste 0 -- -- 63
2019-06-14 18:00:00 23.8 21 Oeste 40 Sudoeste 0 -- -- 57
2019-06-14 17:00:00 24.2 18 Oeste 43 Oeste 0 -- -- 55
2019-06-14 16:00:00 24.1 23 Oeste 47 Sudoeste 0 -- -- 56
2019-06-14 15:00:00 25.1 23 Oeste 41 Sudoeste 0 -- -- 52
2019-06-14 14:00:00 24.9 13 Oeste 26 Oeste 0.2 -- -- 49
2019-06-14 13:00:00 24.6 12 Sudoeste 24 Sudoeste 0 -- -- 50
2019-06-14 12:00:00 26.4 3 Sudeste 18 Sudoeste 0 -- -- 50
2019-06-14 11:00:00 23.4 3 Sudoeste 25 Sudeste 0 -- -- 55
2019-06-14 10:00:00 22.2 9 Sudeste 22 Sudeste 0 -- -- 59
2019-06-14 09:00:00 20.1 4 Este 12 Sudoeste 0 -- -- 74
2019-06-14 08:00:00 16.9 3 Sudoeste 10 Nordeste 0 -- -- 82
2019-06-14 07:00:00 19.8 2 Norte 9 Nordeste 0 -- -- 49
2019-06-14 06:00:00 19.8 3 Este 10 Nordeste 0 -- -- 45
2019-06-14 05:00:00 20 6 Nordeste 15 Nordeste 0 -- -- 41
2019-06-14 04:00:00 20.4 7 Nordeste 18 Nordeste 0.2 -- -- 40
2019-06-14 03:00:00 20 6 Nordeste 15 Nordeste 0 -- -- 40
2019-06-14 02:00:00 19.7 5 Este 15 Este 0 -- -- 36
2019-06-14 01:00:00 19.3 5 Este 13 Este 0 -- -- 38
2019-06-14 00:00:00 19.1 5 Nordeste 12 Nordeste 0 -- -- 44
2019-06-13 23:00:00 19 6 Este 15 Nordeste 0 -- -- 57
2019-06-13 22:00:00 18.8 5 Este 18 Este 0 -- -- 62
2019-06-13 21:00:00 19 6 Este 19 Sudeste 0 -- -- 63
2019-06-13 20:00:00 19.2 7 Este 21 Sudeste 0 -- -- 69
2019-06-13 19:00:00 19.9 8 Este 24 Este 0 -- -- 67
2019-06-13 18:00:00 20.8 9 Este 21 Sudeste 0.2 -- -- 64
2019-06-13 17:00:00 21.3 9 Este 24 Sudeste 0 -- -- 61
2019-06-13 16:00:00 21.7 10 Este 22 Sudeste 0 -- -- 62
2019-06-13 15:00:00 21 10 Sudeste 24 Sudeste 0 -- -- 68
2019-06-13 14:00:00 21.1 8 Sudeste 19 Sudeste 0 -- -- 69
2019-06-13 13:00:00 21.3 8 Este 17 Sudeste 0 -- -- 66
2019-06-13 12:00:00 20.9 9 Este 18 Sudeste 0.2 -- -- 67
2019-06-13 11:00:00 20.5 10 Sudeste 14 Sudeste 0 -- -- 65
2019-06-13 10:00:00 20.1 5 Este 13 Sur 0 -- -- 58
2019-06-13 09:00:00 16 4 Este 8 Este 0 -- -- 84
2019-06-13 08:00:00 13.9 4 Nordeste 9 Nordeste 0 -- -- 92
2019-06-13 07:00:00 15.8 4 Este 10 Nordeste 0 -- -- 76
2019-06-13 06:00:00 15.1 3 Nordeste 6 Nordeste 0 -- -- 82
2019-06-13 05:00:00 15.6 0 Calma 5 Nordeste 0.2 -- -- 80
2019-06-13 04:00:00 15.7 2 Este 5 Nordeste 0 -- -- 81
2019-06-13 03:00:00 16.1 2 Este 5 Nordeste 0 -- -- 79
2019-06-13 02:00:00 16.3 2 Este 4 Este 0 -- -- 80
2019-06-13 01:00:00 16.3 0 Calma 4 Oeste 0 -- -- 81
2019-06-13 00:00:00 17 2 Oeste 8 Oeste 0 -- -- 76
2019-06-12 23:00:00 17.4 6 Oeste 9 Oeste 0.2 -- -- 74
2019-06-12 22:00:00 17.7 5 Oeste 12 Sudoeste 0 -- -- 72
2019-06-12 21:00:00 18.1 9 Sudoeste 20 Sudoeste 0 -- -- 69
2019-06-12 20:00:00 18.6 10 Oeste 21 Sudoeste 0 -- -- 66
2019-06-12 19:00:00 19.7 11 Sudoeste 28 Sudoeste 0 -- -- 60
2019-06-12 18:00:00 20 13 Sudoeste 26 Sudoeste 0.2 -- -- 59
2019-06-12 17:00:00 20.3 13 Sudoeste 28 Sudoeste 0 -- -- 57
2019-06-12 16:00:00 20.3 13 Sudoeste 31 Sudoeste 0 -- -- 54
2019-06-12 15:00:00 20.4 8 Oeste 28 Sudoeste 0 -- -- 55
2019-06-12 14:00:00 19.5 15 Sudoeste 30 Sudoeste 0.2 -- -- 53
2019-06-12 13:00:00 20 14 Sudoeste 30 Sur 0 -- -- 60
2019-06-12 12:00:00 19.5 11 Sudoeste 23 Sudoeste 0 -- -- 64
2019-06-12 11:00:00 18.9 6 Oeste 17 Sudoeste 0 -- -- 68
2019-06-12 10:00:00 17.1 9 Oeste 16 Oeste 0.2 -- -- 74
2019-06-12 09:00:00 14.6 6 Oeste 10 Oeste 0 -- -- 85
2019-06-12 08:00:00 12.9 3 Oeste 10 Noroeste 0 -- -- 94
2019-06-12 07:00:00 13.4 5 Oeste 10 Noroeste 0 -- -- 85
2019-06-12 06:00:00 13.2 5 Oeste 9 Oeste 0.2 -- -- 86
2019-06-12 05:00:00 13 3 Oeste 6 Oeste 0 -- -- 89
2019-06-12 04:00:00 13.2 0 Calma 4 Oeste 0 -- -- 91
2019-06-12 03:00:00 13.5 3 Oeste 8 Oeste 0 -- -- 91
2019-06-12 02:00:00 13.7 3 Oeste 10 Oeste 0.2 -- -- 91
2019-06-12 01:00:00 14.1 4 Oeste 8 Oeste 0 -- -- 89
2019-06-12 00:00:00 13.9 0 Calma 7 Nordeste 0 -- -- 89
2019-06-11 23:00:00 14.1 3 Este 14 Sudeste 0.2 -- -- 90
2019-06-11 22:00:00 14 6 Este 15 Sudeste 0 -- -- 90
2019-06-11 21:00:00 13.9 4 Este 12 Sudeste 0 -- -- 92
2019-06-11 20:00:00 14.1 5 Este 12 Sur 0.2 -- -- 93
2019-06-11 19:00:00 14.2 3 Este 9 Sudeste 0 -- -- 92
2019-06-11 18:00:00 14.7 4 Este 12 Este 0.2 -- -- 90
2019-06-11 17:00:00 14.6 2 Nordeste 14 Nordeste 0 -- -- 86
2019-06-11 16:00:00 14.7 5 Norte 15 Norte 0.2 -- -- 86
2019-06-11 15:00:00 14.9 4 Nordeste 15 Nordeste 0 -- -- 85
2019-06-11 14:00:00 14.7 5 Nordeste 19 Nordeste 0.2 -- -- 88
2019-06-11 13:00:00 14.8 4 Nordeste 18 Norte 0 -- -- 85
2019-06-11 12:00:00 14.5 3 Nordeste 11 Nordeste 0.2 -- -- 95
2019-06-11 11:00:00 14.9 4 Nordeste 13 Este 0.2 -- -- 97
2019-06-11 10:00:00 15.7 5 Este 12 Sudeste 0 -- -- 98
2019-06-11 09:00:00 16.1 4 Este 8 Este 0.2 -- -- 98
2019-06-11 08:00:00 16 3 Este 8 Este 0.2 -- -- 96
2019-06-11 07:00:00 16.9 3 Sudeste 9 Sudeste 0.2 -- -- 89
2019-06-11 06:00:00 18 2 Nordeste 17 Sudeste 0 -- -- 83
2019-06-11 05:00:00 17.9 3 Nordeste 10 Sudeste 0.4 -- -- 87
2019-06-11 04:00:00 18.5 3 Norte 9 Sudoeste 0 -- -- 86
2019-06-11 03:00:00 18.8 6 Oeste 18 Oeste 0 -- -- 84
2019-06-11 02:00:00 19.1 6 Noroeste 16 Noroeste 0 -- -- 82
2019-06-11 01:00:00 19.3 6 Noroeste 13 Oeste 0 -- -- 82
2019-06-11 00:00:00 19.5 6 Noroeste 15 Sudoeste 0 -- -- 81
2019-06-10 23:00:00 20.5 3 Nordeste 12 Este 0 -- -- 75
2019-06-10 22:00:00 21.3 4 Este 15 Sudoeste 0 -- -- 63
2019-06-10 21:00:00 22.4 10 Oeste 26 Sudoeste 0 -- -- 50
2019-06-10 20:00:00 23.4 15 Oeste 35 Sudoeste 0 -- -- 47
2019-06-10 19:00:00 24.9 17 Oeste 30 Oeste 0 -- -- 41
2019-06-10 18:00:00 26.3 14 Sudoeste 31 Sur 0 -- -- 40
2019-06-10 17:00:00 26.8 17 Sudoeste 31 Sudoeste 0 -- -- 37
2019-06-10 16:00:00 26.8 15 Sudoeste 27 Sudoeste 0 -- -- 40
2019-06-10 15:00:00 27 15 Sudoeste 30 Sudoeste 0 -- -- 39
2019-06-10 14:00:00 27.7 13 Oeste 26 Oeste 0 -- -- 36
2019-06-10 13:00:00 27.4 13 Oeste 26 Oeste 0 -- -- 37
2019-06-10 12:00:00 26.5 11 Oeste 23 Oeste 0 -- -- 37
2019-06-10 11:00:00 25.9 6 Oeste 14 Oeste 0 -- -- 38
2019-06-10 10:00:00 23.6 9 Oeste 15 Oeste 0 -- -- 49
2019-06-10 09:00:00 19.7 5 Nordeste 13 Nordeste 0 -- -- 71
2019-06-10 08:00:00 17.3 3 Sudeste 8 Este 0 -- -- 93
2019-06-10 07:00:00 18.5 0 Calma 6 Sudeste 0 -- -- 77
2019-06-10 06:00:00 18.5 0 Calma 4 Sudeste 0 -- -- 82
2019-06-10 05:00:00 18.8 0 Calma 7 Sudeste 0 -- -- 84
2019-06-10 04:00:00 19.4 0 Calma 15 Oeste 0 -- -- 72
2019-06-10 03:00:00 19.9 7 Oeste 14 Oeste 0 -- -- 76
2019-06-10 02:00:00 20.1 0 Calma 9 Sudoeste 0 -- -- 78
2019-06-10 01:00:00 20.3 3 Sudoeste 7 Sudeste 0 -- -- 79
2019-06-10 00:00:00 20.3 2 Sur 12 Sudoeste 0 -- -- 78
2019-06-09 23:00:00 19.8 4 Noroeste 20 Sudoeste 0 -- -- 81
2019-06-09 22:00:00 20.5 4 Oeste 15 Sudoeste 0 -- -- 78
2019-06-09 21:00:00 20.6 6 Oeste 14 Sudoeste 0 -- -- 76
2019-06-09 20:00:00 20.6 4 Oeste 12 Sudoeste 0 -- -- 78
2019-06-09 19:00:00 20.8 4 Sur 12 Sudoeste 0 -- -- 76
2019-06-09 18:00:00 20.8 6 Oeste 15 Sudeste 0 -- -- 79
2019-06-09 17:00:00 22.7 4 Sudoeste 18 Sudeste 0 -- -- 69
2019-06-09 16:00:00 24.1 7 Sudeste 22 Sudeste 0 -- -- 61
2019-06-09 15:00:00 23.9 5 Este 19 Sur 0 -- -- 57
2019-06-09 14:00:00 25.3 9 Este 21 Sudeste 0 -- -- 43
2019-06-09 13:00:00 27.1 4 Este 17 Nordeste 0 -- -- 26
2019-06-09 12:00:00 26.2 6 Nordeste 17 Nordeste 0 -- -- 28
2019-06-09 11:00:00 24.2 6 Este 19 Este 0 -- -- 32
2019-06-09 10:00:00 21.5 9 Nordeste 19 Nordeste 0 -- -- 45
2019-06-09 09:00:00 21 7 Este 15 Sudeste 0 -- -- 51
2019-06-09 08:00:00 21 2 Este 5 Sudeste 0 -- -- 38
2019-06-09 07:00:00 21.1 0 Calma 9 Norte 0 -- -- 34
2019-06-09 06:00:00 20.9 3 Oeste 15 Norte 0 -- -- 32
2019-06-09 05:00:00 21.3 4 Nordeste 12 Nordeste 0 -- -- 28
2019-06-09 04:00:00 21 5 Nordeste 13 Este 0 -- -- 30
2019-06-09 03:00:00 21.3 6 Nordeste 14 Norte 0 -- -- 28
2019-06-09 02:00:00 20 0 Calma 4 Este 0 -- -- 35
2019-06-09 01:00:00 20.7 3 Este 9 Nordeste 0 -- -- 31
2019-06-09 00:00:00 21 4 Nordeste 9 Este 0 -- -- 28
2019-06-08 23:00:00 20.8 4 Este 12 Nordeste 0 -- -- 31
2019-06-08 22:00:00 20.5 3 Este 14 Nordeste 0 -- -- 38
2019-06-08 21:00:00 20.2 5 Este 18 Sudeste 0 -- -- 42
2019-06-08 20:00:00 20.5 7 Este 17 Este 0 -- -- 49
2019-06-08 19:00:00 21.3 8 Este 20 Este 0 -- -- 55
2019-06-08 18:00:00 22.3 6 Este 23 Sudeste 0 -- -- 51
2019-06-08 17:00:00 22.5 8 Este 22 Este 0 -- -- 49
2019-06-08 16:00:00 23 9 Este 23 Sudeste 0 -- -- 48
2019-06-08 15:00:00 22.5 10 Este 23 Este 0 -- -- 53
2019-06-08 14:00:00 22.5 9 Sudeste 23 Sudeste 0 -- -- 55
2019-06-08 13:00:00 22.7 6 Este 20 Sudeste 0 -- -- 54
2019-06-08 12:00:00 22.2 8 Sudeste 17 Sudeste 0 -- -- 52
2019-06-08 11:00:00 22.2 7 Sudeste 14 Sudeste 0 -- -- 54
2019-06-08 10:00:00 21.3 4 Este 10 Este 0 -- -- 54
2019-06-08 09:00:00 19.1 3 Sudeste 10 Este 0 -- -- 53
2019-06-08 08:00:00 18.2 5 Nordeste 14 Nordeste 0 -- -- 53
2019-06-08 07:00:00 17.5 6 Nordeste 13 Nordeste 0 -- -- 57
2019-06-08 06:00:00 17.4 3 Nordeste 18 Sudeste 0 -- -- 67
2019-06-08 05:00:00 17.7 6 Este 16 Sudeste 0 -- -- 68
2019-06-08 04:00:00 17.7 3 Sudeste 11 Sudeste 0 -- -- 73
2019-06-08 03:00:00 17.9 4 Este 10 Este 0 -- -- 71
2019-06-08 02:00:00 18.3 4 Este 14 Sudeste 0 -- -- 69
2019-06-08 01:00:00 18.6 5 Este 12 Este 0 -- -- 73
2019-06-08 00:00:00 18.6 5 Este 17 Sudeste 0 -- -- 80
2019-06-07 23:00:00 18.7 6 Este 21 Este 0 -- -- 78
2019-06-07 22:00:00 19.4 8 Este 37 Este 0 -- -- 75
2019-06-07 21:00:00 25.8 3 Este 16 Nordeste 0 -- -- 25
2019-06-07 20:00:00 26.2 4 Oeste 19 Oeste 0 -- -- 31
2019-06-07 19:00:00 26.6 10 Oeste 23 Oeste 0 -- -- 50
2019-06-07 18:00:00 26.4 11 Oeste 27 Oeste 0 -- -- 56
2019-06-07 17:00:00 26.4 12 Oeste 28 Sudoeste 0 -- -- 58
2019-06-07 16:00:00 25.2 17 Oeste 32 Oeste 0 -- -- 62
2019-06-07 15:00:00 24.9 18 Oeste 37 Oeste 0 -- -- 60
2019-06-07 14:00:00 24.2 15 Oeste 30 Sudoeste 0 -- -- 61
2019-06-07 13:00:00 24 15 Sudoeste 31 Sudoeste 0 -- -- 59
2019-06-07 12:00:00 23.8 15 Oeste 30 Oeste 0 -- -- 59
2019-06-07 11:00:00 22.7 10 Oeste 24 Oeste 0 -- -- 63
2019-06-07 10:00:00 21.4 8 Oeste 17 Sudoeste 0 -- -- 82
2019-06-07 09:00:00 18.9 5 Sudoeste 11 Oeste 0 -- -- 97
2019-06-07 08:00:00 18.6 3 Este 12 Sudeste 0 -- -- 97
2019-06-07 07:00:00 18.9 4 Sudeste 10 Sudeste 0 -- -- 87
2019-06-07 06:00:00 18.8 3 Nordeste 9 Nordeste 0 -- -- 86
2019-06-07 05:00:00 18.5 2 Este 7 Nordeste 0 -- -- 87
2019-06-07 04:00:00 18.9 3 Este 8 Nordeste 0 -- -- 84
2019-06-07 03:00:00 18.4 5 Este 11 Este 0 -- -- 79
2019-06-07 02:00:00 18.4 3 Este 11 Este 0 -- -- 81
2019-06-07 01:00:00 18.6 5 Este 14 Este 0 -- -- 80
2019-06-07 00:00:00 18.5 5 Este 14 Este 0 -- -- 81
2019-06-06 23:00:00 18.1 4 Este 11 Sudeste 0 -- -- 83
2019-06-06 22:00:00 18.2 4 Este 10 Sudeste 0 -- -- 82
2019-06-06 21:00:00 18.7 3 Nordeste 10 Este 0 -- -- 79
2019-06-06 20:00:00 19.4 3 Este 12 Este 0 -- -- 76
2019-06-06 19:00:00 20.8 5 Este 13 Noroeste 0 -- -- 70
2019-06-06 18:00:00 21.5 5 Norte 17 Sur 0 -- -- 67
2019-06-06 17:00:00 21.5 7 Sudoeste 21 Sudoeste 0 -- -- 65
2019-06-06 16:00:00 21.1 9 Sudoeste 23 Sudoeste 0 -- -- 66
2019-06-06 15:00:00 21.4 8 Sudoeste 19 Oeste 0 -- -- 66
2019-06-06 14:00:00 21.6 7 Oeste 21 Oeste 0 -- -- 68
2019-06-06 13:00:00 20.7 9 Oeste 26 Sudoeste 0 -- -- 68
2019-06-06 12:00:00 20.8 9 Sudoeste 23 Sudoeste 0 -- -- 68
2019-06-06 11:00:00 20.8 8 Sudoeste 19 Sur 0 -- -- 67
2019-06-06 10:00:00 19.5 9 Sudoeste 17 Sudoeste 0 -- -- 70
2019-06-06 09:00:00 19 5 Oeste 14 Sudoeste 0 -- -- 74
2019-06-06 08:00:00 16.9 4 Sudoeste 12 Sudoeste 0 -- -- 88
2019-06-06 07:00:00 17.6 4 Oeste 9 Sudoeste 0 -- -- 78
2019-06-06 06:00:00 17.2 0 Calma 10 Oeste 0 -- -- 78
2019-06-06 05:00:00 16.8 3 Sudoeste 8 Sudoeste 0 -- -- 78
2019-06-06 04:00:00 16.9 4 Sudoeste 8 Sur 0 -- -- 78
2019-06-06 03:00:00 16.9 4 Oeste 8 Oeste 0 -- -- 78
2019-06-06 02:00:00 17 2 Noroeste 10 Sudoeste 0 -- -- 80
2019-06-06 01:00:00 17.3 4 Sudoeste 9 Sudoeste 0 -- -- 78
2019-06-06 00:00:00 17.7 3 Oeste 13 Sudeste 0 -- -- 78
2019-06-05 23:00:00 18.1 4 Este 14 Este 0 -- -- 76
2019-06-05 22:00:00 19.6 7 Este 21 Oeste 0 -- -- 71
2019-06-05 21:00:00 22.7 8 Oeste 22 Oeste 0 -- -- 39
2019-06-05 20:00:00 23.5 8 Oeste 23 Oeste 0 -- -- 37
2019-06-05 19:00:00 24.3 5 Nordeste 23 Oeste 0 -- -- 41
2019-06-05 18:00:00 25.2 8 Oeste 35 Oeste 0 -- -- 37
2019-06-05 17:00:00 26.8 6 Sudoeste 36 Oeste 0 -- -- 39
2019-06-05 16:00:00 26.2 10 Oeste 36 Oeste 0 -- -- 45
2019-06-05 15:00:00 24.3 8 Sudoeste 19 Sudoeste 0 -- -- 67
2019-06-05 14:00:00 22.9 7 Sudeste 18 Sudeste 0 -- -- 71
2019-06-05 13:00:00 23.4 8 Sudeste 16 Sudeste 0 -- -- 70
2019-06-05 12:00:00 22.5 6 Este 17 Este 0 -- -- 69
2019-06-05 11:00:00 21.3 8 Este 22 Sudeste 0 -- -- 74
2019-06-05 10:00:00 19.8 8 Este 19 Este 0 -- -- 88
2019-06-05 09:00:00 19 5 Este 16 Este 0 -- -- 93
2019-06-05 08:00:00 17.8 5 Este 19 Nordeste 0 -- -- 95
2019-06-05 07:00:00 19 6 Este 18 Nordeste 0 -- -- 81
2019-06-05 06:00:00 18.6 8 Este 15 Este 0 -- -- 77
2019-06-05 05:00:00 18.6 5 Este 11 Nordeste 0 -- -- 76
2019-06-05 04:00:00 18.7 3 Este 10 Nordeste 0 -- -- 72
2019-06-05 03:00:00 18.4 3 Este 8 Este 0 -- -- 77
2019-06-05 02:00:00 18.7 0 Calma 4 Sudeste 0 -- -- 80
2019-06-05 01:00:00 18.9 0 Calma 5 Sudeste 0 -- -- 80
2019-06-05 00:00:00 19.2 2 Este 5 Este 0 -- -- 82
2019-06-04 23:00:00 19.4 2 Sudeste 5 Sudeste 0 -- -- 82
2019-06-04 22:00:00 19.9 3 Este 7 Sudeste 0 -- -- 84
2019-06-04 21:00:00 20.4 4 Este 10 Este 0 -- -- 79
2019-06-04 20:00:00 20.9 3 Este 14 Oeste 0 -- -- 80
2019-06-04 19:00:00 22.9 3 Nordeste 11 Noroeste 0 -- -- 72
2019-06-04 18:00:00 23.7 4 Nordeste 13 Oeste 0 -- -- 69
2019-06-04 17:00:00 24 4 Nordeste 15 Sudoeste 0 -- -- 70
2019-06-04 16:00:00 24.4 4 Nordeste 20 Sudoeste 0 -- -- 67
2019-06-04 15:00:00 24.7 6 Oeste 24 Sudoeste 0 -- -- 65
2019-06-04 14:00:00 24.8 7 Sudoeste 22 Sudoeste 0 -- -- 62
2019-06-04 13:00:00 24.3 10 Sudoeste 26 Sudoeste 0 -- -- 61
2019-06-04 12:00:00 24.2 6 Oeste 22 Sudoeste 0 -- -- 68
2019-06-04 11:00:00 22.8 6 Oeste 18 Oeste 0 -- -- 70
2019-06-04 10:00:00 22.4 7 Oeste 18 Sudoeste 0 -- -- 65
2019-06-04 09:00:00 19.9 9 Oeste 14 Oeste 0 -- -- 75
2019-06-04 08:00:00 17.1 6 Oeste 10 Sudoeste 0 -- -- 83
2019-06-04 07:00:00 18.4 3 Oeste 5 Sudoeste 0 -- -- 65
2019-06-04 06:00:00 18.4 3 Oeste 5 Oeste 0 -- -- 63
2019-06-04 05:00:00 18.5 3 Sudoeste 5 Oeste 0 -- -- 59
2019-06-04 04:00:00 18.6 2 Sudoeste 5 Oeste 0 -- -- 58
2019-06-04 03:00:00 19.2 3 Oeste 5 Sudoeste 0 -- -- 57
2019-06-04 02:00:00 19.3 2 Sudoeste 5 Oeste 0 -- -- 61
2019-06-04 01:00:00 19.8 4 Oeste 9 Oeste 0 -- -- 70
2019-06-04 00:00:00 19.8 5 Oeste 12 Oeste 0 -- -- 77
2019-06-03 23:00:00 19.9 5 Sudoeste 14 Sudoeste 0 -- -- 78
2019-06-03 22:00:00 20.4 9 Oeste 18 Oeste 0 -- -- 76
2019-06-03 21:00:00 22 9 Sudoeste 19 Oeste 0 -- -- 66
2019-06-03 20:00:00 23.6 8 Sudoeste 26 Oeste 0 -- -- 54
2019-06-03 19:00:00 25.1 14 Oeste 31 Oeste 0 -- -- 38
2019-06-03 18:00:00 25.8 18 Oeste 34 Oeste 0 -- -- 39
2019-06-03 17:00:00 26.3 15 Oeste 35 Oeste 0 -- -- 40
2019-06-03 16:00:00 26.1 17 Oeste 36 Oeste 0 -- -- 40
2019-06-03 15:00:00 25.6 20 Oeste 31 Oeste 0 -- -- 40
2019-06-03 14:00:00 25.7 18 Oeste 35 Oeste 0 -- -- 42
2019-06-03 13:00:00 26.3 15 Oeste 33 Oeste 0 -- -- 37
2019-06-03 12:00:00 25.1 15 Oeste 32 Oeste 0 -- -- 43
2019-06-03 11:00:00 24.2 15 Oeste 26 Oeste 0 -- -- 50
2019-06-03 10:00:00 23 9 Oeste 19 Oeste 0 -- -- 56
2019-06-03 09:00:00 20.1 9 Oeste 19 Oeste 0 -- -- 68
2019-06-03 08:00:00 17 7 Oeste 16 Oeste 0 -- -- 84
2019-06-03 07:00:00 18.9 5 Oeste 10 Oeste 0 -- -- 54
2019-06-03 06:00:00 18.8 4 Oeste 9 Oeste 0 -- -- 54
2019-06-03 05:00:00 18.2 2 Oeste 6 Oeste 0 -- -- 58
2019-06-03 04:00:00 18.6 4 Oeste 9 Oeste 0 -- -- 65
2019-06-03 03:00:00 18.9 6 Oeste 12 Oeste 0 -- -- 59
2019-06-03 02:00:00 18.8 0 Calma 5 Oeste 0 -- -- 54
2019-06-03 01:00:00 19.7 3 Oeste 7 Oeste 0 -- -- 54
2019-06-03 00:00:00 20 5 Oeste 10 Oeste 0 -- -- 52
2019-06-02 23:00:00 20.7 5 Oeste 10 Oeste 0 -- -- 44
2019-06-02 22:00:00 -- 5 Sudoeste 17 Sudoeste 0 -- -- --
2019-06-02 21:00:00 22.2 10 Sudoeste 25 Sudoeste 0 -- -- 38
2019-06-02 20:00:00 23.5 14 Oeste 33 Oeste 0 -- -- 35
2019-06-02 19:00:00 24.6 14 Oeste 35 Oeste 0 -- -- 34
2019-06-02 18:00:00 24.9 14 Sudoeste 31 Oeste 0 -- -- 38
2019-06-02 17:00:00 25.2 18 Oeste 38 Oeste 0 -- -- 33
2019-06-02 16:00:00 25.1 20 Oeste 40 Oeste 0 -- -- 32
2019-06-02 15:00:00 25.3 19 Oeste 39 Oeste 0 -- -- 32
2019-06-02 14:00:00 25 17 Oeste 37 Oeste 0 -- -- 41
2019-06-02 13:00:00 24.4 18 Oeste 34 Sudoeste 0 -- -- 45
2019-06-02 12:00:00 24.2 17 Oeste 33 Oeste 0 -- -- 50
2019-06-02 11:00:00 23.3 13 Oeste 26 Oeste 0 -- -- 62
2019-06-02 10:00:00 22.7 11 Oeste 22 Oeste 0 -- -- 58
2019-06-02 09:00:00 20.2 8 Oeste 15 Oeste 0 -- -- 58
2019-06-02 08:00:00 19.2 7 Oeste 11 Oeste 0 -- -- 54
2019-06-02 07:00:00 17.6 2 Sudoeste 6 Oeste 0 -- -- 57
2019-06-02 06:00:00 17.6 0 Calma 3 Oeste 0 -- -- 53
2019-06-02 05:00:00 17.6 2 Sudoeste 4 Oeste 0 -- -- 51
2019-06-02 04:00:00 17.9 0 Calma 6 Sudoeste 0 -- -- 57
2019-06-02 03:00:00 18.5 4 Oeste 12 Noroeste 0 -- -- 69
2019-06-02 02:00:00 18.7 5 Noroeste 12 Oeste 0 -- -- 78
2019-06-02 01:00:00 18.9 5 Oeste 12 Oeste 0 -- -- 79
2019-06-02 00:00:00 19.1 4 Oeste 14 Oeste 0 -- -- 77
2019-06-01 23:00:00 19.7 8 Oeste 15 Oeste 0 -- -- 68
2019-06-01 22:00:00 20.6 6 Oeste 19 Sudoeste 0 -- -- 51
2019-06-01 21:00:00 21.8 12 Oeste 26 Oeste 0 -- -- 45
2019-06-01 20:00:00 23 15 Oeste 33 Oeste 0 -- -- 39
2019-06-01 19:00:00 24.2 17 Oeste 34 Oeste 0 -- -- 36
2019-06-01 18:00:00 24.4 21 Oeste 37 Sudoeste 0 -- -- 34
2019-06-01 17:00:00 24.9 19 Oeste 39 Oeste 0 -- -- 36
2019-06-01 16:00:00 24.9 20 Oeste 38 Oeste 0 -- -- 41
2019-06-01 15:00:00 24.9 19 Oeste 34 Oeste 0 -- -- 43
2019-06-01 14:00:00 24.5 18 Oeste 35 Oeste 0 -- -- 49
2019-06-01 13:00:00 24.3 17 Oeste 33 Oeste 0 -- -- 52
2019-06-01 12:00:00 24.2 13 Oeste 21 Oeste 0 -- -- 55
2019-06-01 11:00:00 24.1 9 Sudoeste 15 Sudoeste 0 -- -- 56
2019-06-01 10:00:00 22.8 6 Oeste 13 Oeste 0 -- -- 51
2019-06-01 09:00:00 19.9 4 Sudeste 7 Sudeste 0 -- -- 58
2019-06-01 08:00:00 18.7 3 Sudeste 10 Noroeste 0 -- -- 62
2019-06-01 07:00:00 18.4 3 Oeste 6 Oeste 0 -- -- 59
2019-06-01 06:00:00 18.2 0 Calma 5 Oeste 0 -- -- 60
2019-06-01 05:00:00 18.6 0 Calma 5 Oeste 0 -- -- 58
2019-06-01 04:00:00 18.8 0 Calma 5 Sudoeste 0 -- -- 58
2019-06-01 03:00:00 19.5 3 Oeste 6 Oeste 0 -- -- 54
2019-06-01 02:00:00 20.3 4 Oeste 11 Oeste 0 -- -- 51
2019-06-01 01:00:00 20.4 5 Oeste 11 Oeste 0 -- -- 50
2019-06-01 00:00:00 20.1 5 Oeste 15 Noroeste 0 -- -- 48
2019-05-31 23:00:00 20.3 5 Oeste 13 Oeste 0 -- -- 46
2019-05-31 22:00:00 20.5 6 Oeste 15 Oeste 0 -- -- 47
2019-05-31 21:00:00 21.8 7 Sudoeste 22 Oeste 0 -- -- 46
2019-05-31 20:00:00 22.9 11 Oeste 31 Sudoeste 0 -- -- 44
2019-05-31 19:00:00 24.1 13 Oeste 31 Sudoeste 0 -- -- 42
2019-05-31 18:00:00 24.3 15 Oeste 31 Oeste 0 -- -- 43
2019-05-31 17:00:00 24.4 17 Oeste 31 Oeste 0 -- -- 44
2019-05-31 16:00:00 24.6 16 Oeste 27 Sudoeste 0 -- -- 42
2019-05-31 15:00:00 25.1 12 Sudoeste 24 Sudoeste 0 -- -- 42
2019-05-31 14:00:00 24.7 9 Sudoeste 21 Sudoeste 0 -- -- 45
2019-05-31 13:00:00 24.3 8 Sudoeste 17 Sudoeste 0 -- -- 46
2019-05-31 12:00:00 24.3 6 Sudoeste 16 Sudoeste 0 -- -- 45
2019-05-31 11:00:00 23.5 4 Este 12 Sudeste 0 -- -- 47
2019-05-31 10:00:00 20.7 4 Este 11 Este 0 -- -- 60
2019-05-31 09:00:00 16.8 5 Este 9 Sudeste 0 -- -- 89
2019-05-31 08:00:00 15.2 3 Este 7 Sudeste 0 -- -- 92
2019-05-31 07:00:00 16 0 Calma 5 Sur 0 -- -- 77
2019-05-31 06:00:00 16 0 Calma 4 Sudoeste 0 -- -- 79
2019-05-31 05:00:00 16.2 0 Calma 2 Sudoeste 0 -- -- 79
2019-05-31 04:00:00 16.7 0 Calma 6 Oeste 0 -- -- 78
2019-05-31 03:00:00 17.3 4 Oeste 9 Oeste 0 -- -- 79
2019-05-31 02:00:00 17.3 3 Oeste 9 Oeste 0 -- -- 86
2019-05-31 01:00:00 17.7 4 Oeste 9 Sudoeste 0 -- -- 84
2019-05-31 00:00:00 17.9 4 Oeste 9 Oeste 0 -- -- 83
2019-05-30 23:00:00 18.1 3 Sudoeste 9 Sudoeste 0 -- -- 80
2019-05-30 22:00:00 18.7 4 Sudoeste 14 Oeste 0 -- -- 72
2019-05-30 21:00:00 19.3 4 Oeste 16 Oeste 0 -- -- 74
2019-05-30 20:00:00 19.8 11 Oeste 21 Sudoeste 0 -- -- 68
2019-05-30 19:00:00 20.8 12 Sudoeste 23 Sudoeste 0 -- -- 64
2019-05-30 18:00:00 21.6 9 Sudoeste 21 Sudoeste 0 -- -- 55
2019-05-30 17:00:00 22 4 Nordeste 21 Sudoeste 0 -- -- 62
2019-05-30 16:00:00 21.1 9 Sudoeste 23 Sudoeste 0 -- -- 67
2019-05-30 15:00:00 21.3 4 Este 14 Oeste 0 -- -- 67
2019-05-30 14:00:00 21.3 5 Nordeste 17 Sudeste 0 -- -- 68
2019-05-30 13:00:00 21.5 5 Este 17 Sudeste 0 -- -- 63
2019-05-30 12:00:00 20.1 7 Sudeste 16 Sudeste 0 -- -- 68
2019-05-30 11:00:00 20.4 4 Nordeste 15 Sudeste 0 -- -- 64
2019-05-30 10:00:00 19.1 6 Sudeste 11 Sudeste 0 -- -- 70
2019-05-30 09:00:00 16 3 Este 9 Sudeste 0 -- -- 94
2019-05-30 08:00:00 14.5 3 Este 7 Este 0 -- -- 95
2019-05-30 07:00:00 15.3 0 Calma 3 Oeste 0 -- -- 81
2019-05-30 06:00:00 15.5 3 Oeste 6 Oeste 0 -- -- 79
2019-05-30 05:00:00 15.7 3 Oeste 6 Sudoeste 0 -- -- 82
2019-05-30 04:00:00 15.6 2 Sudoeste 6 Sur 0 -- -- 84
2019-05-30 03:00:00 16 2 Sudeste 8 Este 0 -- -- 79
2019-05-30 02:00:00 16.5 2 Sudeste 6 Sudoeste 0 -- -- 76
2019-05-30 01:00:00 17 2 Oeste 10 Oeste 0 -- -- 81
2019-05-30 00:00:00 17 3 Sudoeste 10 Oeste 0 -- -- 80
2019-05-29 23:00:00 17.4 5 Sudoeste 11 Oeste 0 -- -- 77
2019-05-29 22:00:00 17.8 7 Oeste 14 Oeste 0 -- -- 72
2019-05-29 21:00:00 18.2 5 Sudoeste 13 Sudoeste 0 -- -- 69
2019-05-29 20:00:00 18.8 3 Nordeste 12 Este 0 -- -- 71
2019-05-29 19:00:00 19.9 4 Nordeste 18 Sudoeste 0 -- -- 70
2019-05-29 18:00:00 20.1 6 Sudeste 21 Sudoeste 0 -- -- 70
2019-05-29 17:00:00 19.7 15 Sudoeste 28 Sudoeste 0 -- -- 68
2019-05-29 16:00:00 19.9 19 Sudoeste 35 Sudoeste 0 -- -- 64
2019-05-29 15:00:00 20.9 15 Oeste 33 Sudoeste 0 -- -- 59
2019-05-29 14:00:00 20.8 14 Sudoeste 34 Sudoeste 0 -- -- 59
2019-05-29 13:00:00 21.2 14 Oeste 31 Sudoeste 0 -- -- 55
2019-05-29 12:00:00 20.9 17 Oeste 27 Oeste 0 -- -- 52
2019-05-29 11:00:00 20.6 12 Oeste 19 Oeste 0 -- -- 40
2019-05-29 10:00:00 18.9 8 Oeste 14 Sudoeste 0 -- -- 50
2019-05-29 09:00:00 17.6 5 Oeste 14 Oeste 0 -- -- 57
2019-05-29 08:00:00 14.1 2 Oeste 10 Oeste 0 -- -- 86
2019-05-29 07:00:00 15.9 5 Oeste 9 Oeste 0.2 -- -- 70
2019-05-29 06:00:00 16 3 Este 6 Este 0 -- -- 83
2019-05-29 05:00:00 16 4 Nordeste 13 Este 0 -- -- 83
2019-05-29 04:00:00 16.3 5 Este 12 Sudeste 0 -- -- 84
2019-05-29 03:00:00 16.7 0 Calma 12 Sudeste 0 -- -- 83
2019-05-29 02:00:00 17.1 5 Este 12 Este 0 -- -- 78
2019-05-29 01:00:00 17.2 3 Sudeste 6 Sudeste 0 -- -- 77
2019-05-29 00:00:00 17.4 3 Sudoeste 6 Sudoeste 0 -- -- 72
2019-05-28 23:00:00 17.7 2 Oeste 7 Sudoeste 0 -- -- 67
2019-05-28 22:00:00 17.7 2 Sudoeste 9 Sudoeste 0 -- -- 70
2019-05-28 21:00:00 18 3 Este 14 Sudeste 0 -- -- 70
2019-05-28 20:00:00 18.5 5 Este 18 Sudeste 0 -- -- 68
2019-05-28 19:00:00 19.2 4 Nordeste 15 Sudeste 0 -- -- 66
2019-05-28 18:00:00 19.3 8 Sudeste 17 Sudeste 0 -- -- 67
2019-05-28 17:00:00 20.4 4 Norte 18 Sudeste 0 -- -- 66
2019-05-28 16:00:00 21.5 5 Norte 18 Sudoeste 0 -- -- 66
2019-05-28 15:00:00 21.1 6 Oeste 18 Noroeste 0 -- -- 68
2019-05-28 14:00:00 21.5 4 Norte 14 Sudeste 0 -- -- 68
2019-05-28 13:00:00 18.7 5 Este 16 Este 0 -- -- 80
2019-05-28 12:00:00 21 7 Este 21 Sudeste 0 -- -- 64
2019-05-28 11:00:00 20.2 8 Este 16 Este 0 -- -- 75
2019-05-28 10:00:00 20.6 6 Este 16 Nordeste 0.2 -- -- 66
2019-05-28 09:00:00 18.2 8 Nordeste 15 Nordeste 0 -- -- 72
2019-05-28 08:00:00 15.7 4 Sudoeste 11 Oeste 0 -- -- 85
2019-05-28 07:00:00 17.3 6 Oeste 13 Oeste 0 -- -- 70
2019-05-28 06:00:00 16.9 3 Oeste 6 Oeste 0 -- -- 80
2019-05-28 05:00:00 17.1 2 Sudoeste 8 Oeste 0 -- -- 83
2019-05-28 04:00:00 17.6 6 Oeste 14 Oeste 0 -- -- 85
2019-05-28 03:00:00 17.5 0 Calma 6 Sudeste 0 -- -- 86
2019-05-28 02:00:00 17.7 3 Sudeste 11 Este 0 -- -- 86
2019-05-28 01:00:00 18 4 Este 8 Nordeste 0 -- -- 86
2019-05-28 00:00:00 18.1 4 Este 11 Sudeste 0 -- -- 84